aviador You're here:

KHSI Decoded Metar

HASTINGS in NE, USA
Report Time2018-02-20 12:53:00
UTC Time2018-02-20 13:55:14
Flight Rules vfr VFR
Wind340° at 15 kt
W.Decomp.*RWY 32: 14.6 kt HW 3.4 kt RCW
RWY 04: 5.9 kt HW 13.8 kt LCW
W.Rank340° ranks 9
Current wind is above 340° avg. (11.9)
Visibility9999 m
Phenomena:N/A
Clouds:Scattered 037 Hf
Expected CloudBase > 1,600 ft AGL from Temp-Dew spread
CeilingNone
Temp-13°C (ISA -24)
Dew Point-17°C (72% RH)
AAT-21.9°C
QNH1017 hPa
Density Alt-1,194 ft
Elevation1,939 ft
Report Wrong Elevation
Raw Report
KHSI 201253Z AUTO 34015KT 10SM SCT037 M13/M17 A3002 RMK AO2 SLP202
T11281167=

Extra information for KHSI:More info

Metar Taf Metar & Taf Last 4 Metars F.Rules Stats Wind Profile Meteogram Temp Stats Airport Information Weather charts Add Link Nearby VenuesMetar ALERT Operation Metar Decoded Social comments

AIRNAV info for KHSI